Time;durP1;ratioP1;P1;durP2;ratioP2;P2;SDS_P1;SDS_P2;PMS_P1;PMS_P2;Temp;Humidity;BMP_temperature;BMP_pressure;BME280_temperature;BME280_humidity;BME280_pressure;Samples;Min_cycle;Max_cycle;Signal;HPM_P1;HPM_P2
2022/03/08 00:00:26;;;;;;;8.20;6.30;;;3.70;1.00;;;;;;5037251;28;20464;-70
2022/03/08 00:02:54;;;;;;;7.77;5.80;;;3.70;1.00;;;;;;5036934;28;20471;-70
2022/03/08 00:05:22;;;;;;;9.83;6.00;;;3.70;1.00;;;;;;5037424;28;20498;-70
2022/03/08 00:07:49;;;;;;;6.70;5.77;;;3.70;1.00;;;;;;5037339;28;20471;-69
2022/03/08 00:10:16;;;;;;;9.60;5.87;;;3.60;1.00;;;;;;5037246;28;20460;-70
2022/03/08 00:12:43;;;;;;;11.13;7.50;;;3.50;1.00;;;;;;5037088;28;20493;-69
2022/03/08 00:15:11;;;;;;;6.60;5.50;;;3.50;1.00;;;;;;5036780;28;20468;-69
2022/03/08 00:17:41;;;;;;;9.97;6.60;;;3.50;1.00;;;;;;5036860;28;20467;-69
2022/03/08 00:20:09;;;;;;;10.13;5.70;;;3.60;1.00;;;;;;5036724;28;20789;-69
2022/03/08 00:22:37;;;;;;;9.33;6.43;;;3.60;1.00;;;;;;5037035;28;20742;-69
2022/03/08 00:25:05;;;;;;;9.93;6.63;;;3.60;1.00;;;;;;5036950;28;20476;-70
2022/03/08 00:27:32;;;;;;;7.50;5.90;;;3.50;1.00;;;;;;5036545;28;20794;-69
2022/03/08 00:29:59;;;;;;;7.57;6.10;;;3.40;1.00;;;;;;5036272;28;20932;-69
2022/03/08 00:32:26;;;;;;;157.47;67.03;;;3.40;99.90;;;;;;5036523;28;20456;-69
2022/03/08 00:34:54;;;;;;;13.90;8.10;;;3.40;1.00;;;;;;5036396;28;20471;-70
2022/03/08 00:37:21;;;;;;;12.07;5.23;;;3.30;99.90;;;;;;5036361;28;20460;-70
2022/03/08 00:39:48;;;;;;;9.63;6.10;;;3.40;99.90;;;;;;5036322;28;20475;-70
2022/03/08 00:42:15;;;;;;;7.97;6.03;;;3.40;99.90;;;;;;5036002;28;20472;-70
2022/03/08 00:44:43;;;;;;;9.80;5.50;;;3.30;99.90;;;;;;5036248;28;20555;-70
2022/03/08 00:47:11;;;;;;;6.37;5.10;;;3.20;99.90;;;;;;5035620;28;20931;-70
2022/03/08 00:49:39;;;;;;;6.93;5.10;;;3.20;99.90;;;;;;5035834;28;20459;-69
2022/03/08 00:52:09;;;;;;;5.60;4.70;;;3.20;99.90;;;;;;5036303;28;20456;-69
2022/03/08 00:54:36;;;;;;;7.27;5.23;;;3.20;99.90;;;;;;5036276;28;20456;-69
2022/03/08 00:57:03;;;;;;;6.90;5.07;;;3.20;99.90;;;;;;5036410;28;21028;-70
2022/03/08 00:59:30;;;;;;;9.00;6.13;;;3.20;99.90;;;;;;5036878;28;20463;-69
2022/03/08 01:01:58;;;;;;;9.47;6.00;;;3.20;99.90;;;;;;5036384;28;20475;-69
2022/03/08 01:04:25;;;;;;;8.90;5.70;;;3.10;99.90;;;;;;5035847;28;20498;-70
2022/03/08 01:06:51;;;;;;;6.80;5.03;;;3.10;99.90;;;;;;5035776;28;20472;-69
2022/03/08 01:09:19;;;;;;;6.73;5.33;;;3.10;99.90;;;;;;5036076;28;20525;-69
2022/03/08 01:11:46;;;;;;;11.53;6.63;;;3.00;99.90;;;;;;5036582;28;20465;-70
2022/03/08 01:14:13;;;;;;;7.30;5.73;;;3.00;99.90;;;;;;5036344;28;20467;-70
2022/03/08 01:16:40;;;;;;;10.20;5.10;;;3.00;99.90;;;;;;5035657;28;20464;-70
2022/03/08 01:19:07;;;;;;;7.03;5.10;;;3.00;99.90;;;;;;5035675;28;20525;-70
2022/03/08 01:21:36;;;;;;;7.73;5.93;;;3.00;99.90;;;;;;5035693;28;20464;-70
2022/03/08 01:24:04;;;;;;;9.43;5.43;;;3.00;99.90;;;;;;5035098;28;20567;-70
2022/03/08 01:26:32;;;;;;;8.73;5.77;;;2.90;99.90;;;;;;5035679;28;20456;-69
2022/03/08 01:28:59;;;;;;;9.50;5.63;;;3.00;99.90;;;;;;5035676;28;20750;-71
2022/03/08 01:31:27;;;;;;;8.33;5.40;;;3.00;99.90;;;;;;5035304;28;20780;-70
2022/03/08 01:33:54;;;;;;;6.80;5.67;;;3.00;99.90;;;;;;5035320;28;20464;-70
2022/03/08 01:36:21;;;;;;;8.47;5.00;;;2.90;99.90;;;;;;5035588;28;20490;-70
2022/03/08 01:38:48;;;;;;;11.20;5.97;;;2.90;99.90;;;;;;5035623;28;20456;-70
2022/03/08 01:41:15;;;;;;;8.40;5.40;;;2.90;99.90;;;;;;5035471;28;20514;-70
2022/03/08 01:43:45;;;;;;;9.33;5.57;;;2.90;99.90;;;;;;5035215;28;20496;-70
2022/03/08 01:46:12;;;;;;;6.33;5.37;;;2.80;99.90;;;;;;5035641;28;20487;-70
2022/03/08 01:48:38;;;;;;;7.20;5.27;;;2.80;99.90;;;;;;5035457;28;20463;-70
2022/03/08 01:51:06;;;;;;;7.37;5.50;;;2.80;99.90;;;;;;5035555;28;20765;-70
2022/03/08 01:53:33;;;;;;;14.00;6.93;;;2.80;99.90;;;;;;5035222;28;20456;-70
2022/03/08 01:56:00;;;;;;;15.37;6.90;;;2.80;99.90;;;;;;5035404;28;20471;-70
2022/03/08 01:58:27;;;;;;;8.20;6.30;;;2.80;99.90;;;;;;5035190;28;20791;-70
2022/03/08 02:00:55;;;;;;;7.60;5.93;;;2.70;99.90;;;;;;5035081;28;20513;-70
2022/03/08 02:03:22;;;;;;;11.33;6.90;;;2.70;99.90;;;;;;5036077;28;20468;-70
2022/03/08 02:05:49;;;;;;;10.97;6.53;;;2.70;99.90;;;;;;5036003;28;20824;-70
2022/03/08 02:08:15;;;;;;;8.83;6.43;;;2.70;99.90;;;;;;5036103;28;20472;-70
2022/03/08 02:10:42;;;;;;;10.27;5.63;;;2.60;99.90;;;;;;5035150;28;20460;-70
2022/03/08 02:13:09;;;;;;;7.40;6.20;;;2.60;99.90;;;;;;5034765;28;20455;-70
2022/03/08 02:15:37;;;;;;;8.93;6.13;;;2.50;99.90;;;;;;5034827;28;20506;-70
2022/03/08 02:18:06;;;;;;;8.10;5.67;;;2.50;99.90;;;;;;5034784;28;20456;-70
2022/03/08 02:20:32;;;;;;;9.87;5.73;;;2.50;99.90;;;;;;5034682;28;20512;-70
2022/03/08 02:23:01;;;;;;;9.77;5.73;;;2.50;99.90;;;;;;5034495;28;20467;-70
2022/03/08 02:25:27;;;;;;;9.47;6.10;;;2.50;99.90;;;;;;5034380;28;20574;-70
2022/03/08 02:27:55;;;;;;;8.90;5.87;;;2.50;99.90;;;;;;5034547;28;20525;-70
2022/03/08 02:30:24;;;;;;;8.07;5.37;;;2.40;99.90;;;;;;5034471;28;20456;-70
2022/03/08 02:32:52;;;;;;;6.73;5.70;;;2.40;99.90;;;;;;5034524;28;20475;-70
2022/03/08 02:35:21;;;;;;;8.63;5.33;;;2.40;99.90;;;;;;5033920;28;20467;-69
2022/03/08 02:37:49;;;;;;;9.83;5.93;;;2.40;99.90;;;;;;5034535;28;20455;-69
2022/03/08 02:40:20;;;;;;;10.47;6.50;;;2.40;99.90;;;;;;5034268;28;20784;-69
2022/03/08 02:42:47;;;;;;;10.13;5.53;;;2.40;99.90;;;;;;5033915;28;20967;-70
2022/03/08 02:45:15;;;;;;;9.93;6.10;;;2.30;99.90;;;;;;5034192;28;20476;-71
2022/03/08 02:47:43;;;;;;;7.73;5.97;;;2.30;99.90;;;;;;5034421;28;20440;-70
2022/03/08 02:50:11;;;;;;;6.53;5.10;;;2.40;99.90;;;;;;5034359;28;20522;-70
2022/03/08 02:52:40;;;;;;;8.77;5.97;;;2.40;99.90;;;;;;5034264;28;20459;-70
2022/03/08 02:55:09;;;;;;;6.20;5.17;;;2.40;99.90;;;;;;5033980;28;20456;-70
2022/03/08 02:57:37;;;;;;;6.10;5.00;;;2.40;99.90;;;;;;5034191;28;20459;-69
2022/03/08 03:00:07;;;;;;;7.40;5.57;;;2.40;99.90;;;;;;5033924;28;20464;-70
2022/03/08 03:02:33;;;;;;;6.87;5.30;;;2.30;99.90;;;;;;5034077;28;20463;-69
2022/03/08 03:05:00;;;;;;;8.97;5.40;;;2.30;99.90;;;;;;5033992;28;20490;-71
2022/03/08 03:07:27;;;;;;;8.50;5.60;;;2.30;99.90;;;;;;5034011;28;20912;-70
2022/03/08 03:09:54;;;;;;;8.30;5.73;;;2.30;99.90;;;;;;5034314;28;20456;-70
2022/03/08 03:12:20;;;;;;;7.80;5.00;;;2.20;99.90;;;;;;5036711;28;20916;-70
2022/03/08 03:14:48;;;;;;;6.47;4.70;;;2.20;99.90;;;;;;5038191;28;20460;-70
2022/03/08 03:17:16;;;;;;;9.40;5.90;;;2.20;99.90;;;;;;5038056;28;20467;-70
2022/03/08 03:19:43;;;;;;;8.20;5.73;;;2.20;99.90;;;;;;5040264;28;20788;-70
2022/03/08 03:22:10;;;;;;;7.57;6.13;;;2.20;99.90;;;;;;5039239;28;20529;-74
2022/03/08 03:24:36;;;;;;;10.83;5.50;;;2.20;99.90;;;;;;5038666;28;20483;-74
2022/03/08 03:27:03;;;;;;;9.73;5.77;;;2.20;99.90;;;;;;5038661;28;20482;-74
2022/03/08 03:29:30;;;;;;;6.37;5.50;;;2.20;99.90;;;;;;5038235;28;20459;-74
2022/03/08 03:31:58;;;;;;;10.67;6.20;;;2.10;99.90;;;;;;5038132;28;20550;-74
2022/03/08 03:34:25;;;;;;;6.07;5.10;;;2.10;99.90;;;;;;5037879;28;20518;-74
2022/03/08 03:36:51;;;;;;;8.90;5.90;;;2.10;99.90;;;;;;5037649;28;20463;-74
2022/03/08 03:39:18;;;;;;;5.97;5.33;;;2.10;99.90;;;;;;5037725;28;20470;-74
2022/03/08 03:41:45;;;;;;;7.93;5.73;;;2.10;99.90;;;;;;5037833;28;20455;-74
2022/03/08 03:44:12;;;;;;;7.37;6.03;;;2.00;99.90;;;;;;5037454;28;20496;-74
2022/03/08 03:46:38;;;;;;;6.83;5.37;;;2.00;99.90;;;;;;5037365;28;20951;-74
2022/03/08 03:49:07;;;;;;;8.77;5.47;;;2.00;99.90;;;;;;5037542;28;20456;-74
2022/03/08 03:51:33;;;;;;;6.60;5.37;;;2.00;99.90;;;;;;5037627;28;20464;-74
2022/03/08 03:54:00;;;;;;;6.50;5.90;;;2.00;99.90;;;;;;5037611;28;20468;-73
2022/03/08 03:56:27;;;;;;;9.03;5.40;;;2.00;99.90;;;;;;5036946;28;20466;-72
2022/03/08 03:58:53;;;;;;;5.83;4.77;;;2.00;99.90;;;;;;5037487;28;20472;-73
2022/03/08 04:01:20;;;;;;;8.70;5.50;;;2.00;99.90;;;;;;5037329;28;20466;-73
2022/03/08 04:03:47;;;;;;;10.33;5.10;;;1.90;99.90;;;;;;5037370;28;20460;-74
2022/03/08 04:06:15;;;;;;;6.67;5.23;;;1.90;99.90;;;;;;5037128;28;20498;-73
2022/03/08 04:08:42;;;;;;;6.87;4.70;;;1.90;99.90;;;;;;5037165;28;20534;-72
2022/03/08 04:11:09;;;;;;;6.40;5.30;;;1.90;99.90;;;;;;5037637;28;20471;-72
2022/03/08 04:13:38;;;;;;;6.00;4.90;;;1.90;99.90;;;;;;5036897;28;20456;-72
2022/03/08 04:16:06;;;;;;;5.63;4.70;;;1.90;99.90;;;;;;5036920;28;20479;-73
2022/03/08 04:18:32;;;;;;;7.37;4.90;;;2.00;99.90;;;;;;5037334;28;20917;-73
2022/03/08 04:20:59;;;;;;;8.03;5.00;;;2.10;99.90;;;;;;5036580;28;20463;-72
2022/03/08 04:23:27;;;;;;;6.07;4.73;;;2.10;99.90;;;;;;5036121;28;20463;-73
2022/03/08 04:25:54;;;;;;;5.17;4.67;;;2.10;99.90;;;;;;5037637;28;20576;-72
2022/03/08 04:28:21;;;;;;;10.17;5.20;;;2.10;99.90;;;;;;5037883;28;20486;-72
2022/03/08 04:30:48;;;;;;;9.60;5.00;;;2.10;99.90;;;;;;5037951;28;20460;-73
2022/03/08 04:33:14;;;;;;;17.30;10.40;;;2.00;99.90;;;;;;5038478;28;20460;-73
2022/03/08 04:35:41;;;;;;;8.17;6.47;;;2.00;99.90;;;;;;5039950;28;20456;-71
2022/03/08 04:38:08;;;;;;;7.77;5.60;;;2.00;99.90;;;;;;5040350;28;20786;-72
2022/03/08 04:40:36;;;;;;;8.27;5.57;;;2.00;99.90;;;;;;5040036;28;20455;-72
2022/03/08 04:43:03;;;;;;;9.13;6.60;;;2.00;99.90;;;;;;5040510;28;20546;-71
2022/03/08 04:45:30;;;;;;;8.50;5.80;;;2.00;99.90;;;;;;5039512;28;20508;-71
2022/03/08 04:47:59;;;;;;;7.70;5.53;;;2.00;99.90;;;;;;5038176;28;20456;-72
2022/03/08 04:50:26;;;;;;;7.10;5.37;;;1.90;99.90;;;;;;5037908;28;20514;-72
2022/03/08 04:52:53;;;;;;;6.73;5.67;;;2.00;99.90;;;;;;5038331;28;20460;-72
2022/03/08 04:55:20;;;;;;;8.90;6.47;;;2.00;99.90;;;;;;5037839;28;20448;-72
2022/03/08 04:57:48;;;;;;;8.10;6.20;;;1.90;99.90;;;;;;5037135;28;20521;-72
2022/03/08 05:00:16;;;;;;;8.27;6.43;;;1.90;99.90;;;;;;5037204;28;20456;-72
2022/03/08 05:02:45;;;;;;;10.27;6.27;;;1.90;99.90;;;;;;5036314;28;20490;-72
2022/03/08 05:05:12;;;;;;;10.93;6.53;;;1.80;99.90;;;;;;5035957;28;20480;-72
2022/03/08 05:07:40;;;;;;;12.60;6.63;;;1.80;99.90;;;;;;5035816;28;20452;-71
2022/03/08 05:10:10;;;;;;;8.50;6.80;;;1.80;99.90;;;;;;5035751;28;20467;-71
2022/03/08 05:12:37;;;;;;;12.30;6.93;;;1.80;99.90;;;;;;5035810;28;20752;-71
2022/03/08 05:15:07;;;;;;;8.70;6.20;;;1.80;99.90;;;;;;5035901;28;20754;-72
2022/03/08 05:17:33;;;;;;;11.10;6.97;;;1.70;99.90;;;;;;5035839;28;20452;-71
2022/03/08 05:20:00;;;;;;;11.77;6.53;;;1.70;99.90;;;;;;5035442;28;20468;-71
2022/03/08 05:22:27;;;;;;;9.13;6.03;;;1.70;99.90;;;;;;5035759;28;20459;-72
2022/03/08 05:24:53;;;;;;;8.80;6.20;;;1.70;99.90;;;;;;5035456;28;20883;-71
2022/03/08 05:27:20;;;;;;;11.30;5.90;;;1.60;99.90;;;;;;5036791;28;20526;-73
2022/03/08 05:29:47;;;;;;;9.20;6.87;;;1.60;99.90;;;;;;5037416;28;20530;-71
2022/03/08 05:32:15;;;;;;;14.07;6.43;;;1.60;99.90;;;;;;5036702;28;20558;-72
2022/03/08 05:34:42;;;;;;;6.93;5.63;;;1.60;99.90;;;;;;5034380;28;20457;-72
2022/03/08 05:37:09;;;;;;;10.13;6.50;;;1.60;99.90;;;;;;5035434;28;20471;-71
2022/03/08 05:39:36;;;;;;;7.70;5.70;;;1.60;99.90;;;;;;5034996;28;20463;-72
2022/03/08 05:42:03;;;;;;;18.43;11.70;;;1.60;99.90;;;;;;5035186;28;20460;-72
2022/03/08 05:44:29;;;;;;;12.13;7.03;;;1.60;99.90;;;;;;5034778;28;20488;-71
2022/03/08 05:46:56;;;;;;;9.83;6.00;;;1.60;99.90;;;;;;5035153;28;20456;-72
2022/03/08 05:49:24;;;;;;;8.13;5.73;;;1.50;99.90;;;;;;5035218;28;20460;-71
2022/03/08 05:51:51;;;;;;;7.93;6.50;;;1.60;99.90;;;;;;5037751;28;20464;-71
2022/03/08 05:54:17;;;;;;;7.47;5.73;;;1.60;99.90;;;;;;5038274;28;20774;-72
2022/03/08 05:56:44;;;;;;;9.07;6.20;;;1.60;99.90;;;;;;5037792;28;20460;-72
2022/03/08 05:59:11;;;;;;;7.10;5.73;;;1.60;99.90;;;;;;5038253;28;20452;-72
2022/03/08 06:01:37;;;;;;;7.37;5.47;;;1.60;99.90;;;;;;5037568;28;20486;-72
2022/03/08 06:04:04;;;;;;;9.70;6.03;;;1.60;99.90;;;;;;5035679;28;20460;-71
2022/03/08 06:06:33;;;;;;;7.70;5.93;;;1.60;99.90;;;;;;5035259;28;20491;-71
2022/03/08 06:08:59;;;;;;;8.30;6.47;;;1.70;99.90;;;;;;5034892;28;20460;-71
2022/03/08 06:11:26;;;;;;;7.23;6.20;;;1.70;99.90;;;;;;5034648;28;20464;-71
2022/03/08 06:13:53;;;;;;;10.10;6.50;;;1.70;99.90;;;;;;5035020;28;20463;-71
2022/03/08 06:16:19;;;;;;;8.03;6.10;;;1.80;99.90;;;;;;5035021;28;20452;-71
2022/03/08 06:18:46;;;;;;;8.13;5.80;;;1.80;99.90;;;;;;5034625;28;20904;-70
2022/03/08 06:21:13;;;;;;;9.17;6.87;;;1.90;99.90;;;;;;5034828;28;20480;-71
2022/03/08 06:23:41;;;;;;;11.53;6.30;;;1.90;99.90;;;;;;5034525;28;20459;-71
2022/03/08 06:26:09;;;;;;;9.17;7.00;;;1.90;99.90;;;;;;5035278;28;20487;-71
2022/03/08 06:28:36;;;;;;;10.13;6.53;;;2.00;99.90;;;;;;5034737;28;20798;-71
2022/03/08 06:31:02;;;;;;;9.50;7.07;;;2.00;99.90;;;;;;5034410;28;20455;-71
2022/03/08 06:33:29;;;;;;;7.33;6.60;;;2.10;99.90;;;;;;5034927;28;20517;-71
2022/03/08 06:35:56;;;;;;;9.70;6.57;;;2.10;99.90;;;;;;5034160;28;20929;-71
2022/03/08 06:38:22;;;;;;;8.83;6.40;;;2.10;99.90;;;;;;5034551;28;20522;-71
2022/03/08 06:40:50;;;;;;;8.47;6.47;;;2.20;99.90;;;;;;5034370;28;20475;-71
2022/03/08 06:43:17;;;;;;;12.03;6.97;;;2.20;99.90;;;;;;5034013;28;20545;-71
2022/03/08 06:45:46;;;;;;;8.73;7.03;;;2.20;99.90;;;;;;5034326;28;20491;-71
2022/03/08 06:48:13;;;;;;;8.23;6.50;;;2.30;99.90;;;;;;5038686;28;20455;-71
2022/03/08 06:50:41;;;;;;;8.83;5.70;;;2.40;99.90;;;;;;5038493;28;20797;-71
2022/03/08 06:53:08;;;;;;;13.33;8.57;;;2.40;99.90;;;;;;5038099;28;20928;-71
2022/03/08 06:55:35;;;;;;;17.93;12.97;;;2.50;99.90;;;;;;5038393;28;20562;-71
2022/03/08 06:58:04;;;;;;;12.70;9.23;;;2.60;99.90;;;;;;5038555;28;20730;-70
2022/03/08 07:00:30;;;;;;;15.43;10.20;;;2.60;99.90;;;;;;5038245;28;20466;-70
2022/03/08 07:03:00;;;;;;;13.50;9.70;;;2.60;99.90;;;;;;5038224;28;20486;-71
2022/03/08 07:05:27;;;;;;;17.30;12.10;;;2.70;99.90;;;;;;5038298;28;20479;-71
2022/03/08 07:07:54;;;;;;;16.43;11.47;;;2.70;99.90;;;;;;5038599;28;20491;-70
2022/03/08 07:10:20;;;;;;;16.73;10.33;;;2.70;99.90;;;;;;5038241;28;20520;-70
2022/03/08 07:12:47;;;;;;;14.23;9.00;;;2.80;99.90;;;;;;5038064;28;20848;-71
2022/03/08 07:15:15;;;;;;;13.47;8.87;;;2.80;99.90;;;;;;5037853;28;20525;-71
2022/03/08 07:17:45;;;;;;;16.07;8.87;;;2.90;99.90;;;;;;5039195;28;20498;-71
2022/03/08 07:20:13;;;;;;;15.77;10.20;;;2.90;99.90;;;;;;5039288;28;20877;-71
2022/03/08 07:22:40;;;;;;;15.13;8.70;;;3.00;99.90;;;;;;5038924;28;20452;-70
2022/03/08 07:25:08;;;;;;;12.00;9.37;;;3.00;99.90;;;;;;5039282;28;20482;-70
2022/03/08 07:27:35;;;;;;;13.00;8.60;;;3.10;99.90;;;;;;5038710;28;20455;-71
2022/03/08 07:30:03;;;;;;;12.30;8.00;;;3.10;99.90;;;;;;5038566;28;20460;-70
2022/03/08 07:32:31;;;;;;;10.77;8.97;;;3.20;99.90;;;;;;5037985;28;20917;-71
2022/03/08 07:34:58;;;;;;;9.37;8.37;;;3.30;99.90;;;;;;5037689;28;20541;-71
2022/03/08 07:37:25;;;;;;;12.90;8.73;;;3.40;99.90;;;;;;5037672;28;20456;-72
2022/03/08 07:39:53;;;;;;;12.93;9.00;;;3.40;99.90;;;;;;5037831;28;20456;-71
2022/03/08 07:42:20;;;;;;;10.03;7.83;;;3.50;99.90;;;;;;5037373;28;20456;-71
2022/03/08 07:44:46;;;;;;;10.90;8.03;;;3.60;99.90;;;;;;5037480;28;20451;-73
2022/03/08 07:47:13;;;;;;;10.77;8.80;;;3.70;99.90;;;;;;5037348;28;20506;-72
2022/03/08 07:49:41;;;;;;;15.33;9.20;;;3.80;99.90;;;;;;5037845;28;20789;-71
2022/03/08 07:52:08;;;;;;;12.50;7.97;;;3.90;99.90;;;;;;5037265;28;20931;-71
2022/03/08 07:54:35;;;;;;;9.50;7.20;;;3.90;99.90;;;;;;5037329;28;20482;-71
2022/03/08 07:57:01;;;;;;;11.23;7.90;;;4.00;99.90;;;;;;5037650;28;20460;-71
2022/03/08 07:59:29;;;;;;;9.03;8.07;;;4.00;99.90;;;;;;5037087;28;20455;-71
2022/03/08 08:01:56;;;;;;;10.87;8.30;;;4.00;99.90;;;;;;5037734;28;20460;-70
2022/03/08 08:04:23;;;;;;;10.83;7.70;;;4.10;99.90;;;;;;5037684;28;20518;-72
2022/03/08 08:06:51;;;;;;;10.63;7.37;;;4.20;99.90;;;;;;5037336;28;20859;-71
2022/03/08 08:09:18;;;;;;;11.00;7.97;;;4.20;99.90;;;;;;5037104;28;20460;-71
2022/03/08 08:11:44;;;;;;;12.47;7.00;;;4.30;99.90;;;;;;5037090;28;20467;-71
2022/03/08 08:14:11;;;;;;;9.10;6.47;;;4.30;99.90;;;;;;5036559;28;20467;-71
2022/03/08 08:16:38;;;;;;;10.20;6.40;;;4.40;99.90;;;;;;5036991;28;20905;-70
2022/03/08 08:19:04;;;;;;;8.17;6.20;;;4.50;99.90;;;;;;5037302;28;20464;-71
2022/03/08 08:21:32;;;;;;;11.70;6.57;;;4.50;99.90;;;;;;5036922;28;20605;-70
2022/03/08 08:24:00;;;;;;;9.37;6.63;;;4.60;99.90;;;;;;5036853;28;20805;-70
2022/03/08 08:26:27;;;;;;;7.63;6.10;;;4.60;99.90;;;;;;5036679;28;20480;-70
2022/03/08 08:28:54;;;;;;;7.27;5.60;;;4.70;99.90;;;;;;5036783;28;20456;-71
2022/03/08 08:31:23;;;;;;;5.17;4.67;;;4.80;99.90;;;;;;5036923;28;20471;-71
2022/03/08 08:33:49;;;;;;;6.40;5.23;;;4.80;99.90;;;;;;5036573;28;20461;-70
2022/03/08 08:36:17;;;;;;;6.03;4.70;;;4.90;99.90;;;;;;5036575;28;20766;-71
2022/03/08 08:38:43;;;;;;;7.40;4.00;;;5.00;99.90;;;;;;5036519;28;20460;-70
2022/03/08 08:41:11;;;;;;;6.07;3.63;;;5.00;99.90;;;;;;5036819;28;20471;-71
2022/03/08 08:43:38;;;;;;;9.47;4.70;;;5.10;99.90;;;;;;5036470;28;20499;-71
2022/03/08 08:46:05;;;;;;;7.17;5.07;;;5.20;99.90;;;;;;5037305;28;20480;-71
2022/03/08 08:48:31;;;;;;;7.53;5.40;;;5.30;99.90;;;;;;5037048;28;20463;-70
2022/03/08 08:50:58;;;;;;;5.80;5.20;;;5.40;99.90;;;;;;5036961;28;20452;-72
2022/03/08 08:53:26;;;;;;;8.43;5.17;;;5.40;99.90;;;;;;5036327;28;20460;-70
2022/03/08 08:55:53;;;;;;;6.77;4.73;;;5.40;99.90;;;;;;5036279;28;20551;-70
2022/03/08 08:58:21;;;;;;;5.87;4.80;;;5.50;99.90;;;;;;5036352;28;20460;-72
2022/03/08 09:00:48;;;;;;;6.70;4.57;;;5.50;99.90;;;;;;5035982;28;20951;-72
2022/03/08 09:03:16;;;;;;;9.73;5.20;;;5.60;99.90;;;;;;5035999;28;20518;-71
2022/03/08 09:05:43;;;;;;;7.23;5.00;;;5.70;99.90;;;;;;5036313;28;20524;-72
2022/03/08 09:08:10;;;;;;;6.67;4.80;;;5.70;99.90;;;;;;5036720;28;20503;-71
2022/03/08 09:10:37;;;;;;;8.47;4.90;;;5.80;99.90;;;;;;5035921;28;20530;-71
2022/03/08 09:13:05;;;;;;;6.50;4.53;;;5.80;99.90;;;;;;5036156;28;20478;-70
2022/03/08 09:15:35;;;;;;;7.37;5.30;;;5.90;99.90;;;;;;5035733;28;20452;-70
2022/03/08 09:18:05;;;;;;;35.33;21.97;;;6.00;99.90;;;;;;5035808;28;20883;-70
2022/03/08 09:20:32;;;;;;;8.23;5.20;;;6.00;99.90;;;;;;5035466;28;20472;-71
2022/03/08 09:22:59;;;;;;;8.27;5.70;;;6.10;99.90;;;;;;5035662;28;20460;-69
2022/03/08 09:25:26;;;;;;;6.10;4.90;;;6.20;99.90;;;;;;5035391;28;20460;-71
2022/03/08 09:27:53;;;;;;;6.10;5.07;;;6.20;99.90;;;;;;5035855;28;20504;-70
2022/03/08 09:30:20;;;;;;;7.80;4.90;;;6.30;99.90;;;;;;5035112;28;20452;-70
2022/03/08 09:32:48;;;;;;;5.97;3.90;;;6.40;99.90;;;;;;5035348;28;20452;-70
2022/03/08 09:35:15;;;;;;;6.53;4.40;;;6.40;99.90;;;;;;5035465;28;20456;-70
2022/03/08 09:37:42;;;;;;;6.73;4.83;;;6.50;99.90;;;;;;5035295;28;20768;-70
2022/03/08 09:40:10;;;;;;;6.23;4.50;;;6.60;99.90;;;;;;5034971;28;20468;-71
2022/03/08 09:42:37;;;;;;;7.10;5.00;;;6.70;99.90;;;;;;5035186;28;20487;-70
2022/03/08 09:45:05;;;;;;;13.87;10.37;;;6.80;99.90;;;;;;5035409;28;20786;-70
2022/03/08 09:47:31;;;;;;;53.50;27.70;;;6.90;99.90;;;;;;5035102;28;20788;-71
2022/03/08 09:49:59;;;;;;;8.50;4.87;;;6.90;99.90;;;;;;5035173;28;20522;-70
2022/03/08 09:52:26;;;;;;;5.40;3.90;;;7.00;99.90;;;;;;5035122;28;20844;-70
2022/03/08 09:54:53;;;;;;;4.10;3.40;;;7.10;99.90;;;;;;5035204;28;20452;-70
2022/03/08 09:57:22;;;;;;;6.80;4.70;;;7.10;99.90;;;;;;5034882;28;20453;-70
2022/03/08 09:59:49;;;;;;;4.87;3.90;;;7.10;99.90;;;;;;5034985;28;20464;-71
2022/03/08 10:02:16;;;;;;;4.70;3.90;;;7.20;99.90;;;;;;5034503;28;20466;-69
2022/03/08 10:04:43;;;;;;;5.07;4.23;;;7.30;99.90;;;;;;5034711;28;20467;-70
2022/03/08 10:07:14;;;;;;;6.80;3.97;;;7.30;99.90;;;;;;5034431;28;20493;-70
2022/03/08 10:09:54;;;;;;;6.00;4.33;;;7.40;99.90;;;;;;5034930;28;20514;-71
2022/03/08 10:12:21;;;;;;;4.63;3.60;;;7.40;99.90;;;;;;5034491;28;20781;-70
2022/03/08 10:14:48;;;;;;;4.80;3.50;;;7.50;99.90;;;;;;5034602;28;20498;-70
2022/03/08 10:17:34;;;;;;;5.90;3.60;;;7.60;99.90;;;;;;5034442;28;20453;-70
2022/03/08 10:20:01;;;;;;;6.20;4.10;;;7.60;99.90;;;;;;5034530;28;20436;-71
2022/03/08 10:22:32;;;;;;;6.70;4.03;;;7.70;99.90;;;;;;5034037;28;20530;-71
2022/03/08 10:25:16;;;;;;;7.17;4.07;;;7.70;99.90;;;;;;5034325;28;20481;-71
2022/03/08 10:27:44;;;;;;;5.50;4.53;;;7.80;99.90;;;;;;5034202;28;20480;-71
2022/03/08 10:30:13;;;;;;;3.90;3.20;;;7.90;99.90;;;;;;5034584;28;20466;-71
2022/03/08 10:32:40;;;;;;;5.27;3.53;;;7.90;99.90;;;;;;5034800;28;20460;-70
2022/03/08 10:35:10;;;;;;;6.17;4.00;;;8.00;99.90;;;;;;5034821;28;20462;-69
2022/03/08 10:37:40;;;;;;;5.00;4.20;;;8.00;99.90;;;;;;5034647;28;20514;-67
2022/03/08 10:40:10;;;;;;;4.83;3.90;;;8.00;99.90;;;;;;5034322;28;20468;-68
2022/03/08 10:42:39;;;;;;;6.80;3.40;;;8.00;99.90;;;;;;5034755;28;20488;-67
2022/03/08 10:45:08;;;;;;;4.70;3.27;;;8.00;99.90;;;;;;5034509;28;20470;-66
2022/03/08 10:47:42;;;;;;;5.17;3.80;;;8.00;99.90;;;;;;5034590;28;20812;-68
2022/03/08 10:50:11;;;;;;;4.73;3.70;;;8.10;99.90;;;;;;5034338;28;20466;-67
2022/03/08 10:52:41;;;;;;;5.77;3.40;;;8.20;99.90;;;;;;5034079;28;20452;-67
2022/03/08 10:55:13;;;;;;;7.60;4.13;;;8.30;99.90;;;;;;5033836;28;20456;-68
2022/03/08 10:57:41;;;;;;;7.47;4.57;;;8.30;99.90;;;;;;5034132;28;20452;-67
2022/03/08 11:00:11;;;;;;;5.63;4.00;;;8.40;99.90;;;;;;5034209;28;20515;-67
2022/03/08 11:02:49;;;;;;;11.40;4.60;;;8.30;99.90;;;;;;5034252;28;20503;-67
2022/03/08 11:05:17;;;;;;;7.40;3.30;;;8.40;99.90;;;;;;5034315;28;20927;-68
2022/03/08 11:07:46;;;;;;;5.67;3.20;;;8.40;99.90;;;;;;5035367;28;20479;-67
2022/03/08 11:10:14;;;;;;;3.80;3.20;;;8.40;99.90;;;;;;5035343;28;20456;-68
2022/03/08 11:12:41;;;;;;;4.97;3.20;;;8.40;99.90;;;;;;5036305;28;20456;-67
2022/03/08 11:15:11;;;;;;;10.17;3.93;;;8.50;99.90;;;;;;5038296;28;20464;-67
2022/03/08 11:17:39;;;;;;;7.20;2.97;;;8.70;99.90;;;;;;5036322;28;20451;-67
2022/03/08 11:20:08;;;;;;;4.30;3.00;;;8.70;99.90;;;;;;5035065;28;20471;-67
2022/03/08 11:22:37;;;;;;;3.50;3.20;;;8.80;99.90;;;;;;5034207;28;20947;-67
2022/03/08 11:25:08;;;;;;;3.50;2.83;;;8.80;99.90;;;;;;5034572;28;20455;-68
2022/03/08 11:27:36;;;;;;;3.60;3.10;;;8.80;99.90;;;;;;5034431;28;20468;-67
2022/03/08 11:30:04;;;;;;;3.63;2.30;;;8.90;99.90;;;;;;5033927;28;20502;-68
2022/03/08 11:32:36;;;;;;;4.47;2.10;;;8.90;99.90;;;;;;5035422;28;20486;-67
2022/03/08 11:35:11;;;;;;;3.50;2.93;;;9.00;99.90;;;;;;5037676;28;20444;-68
2022/03/08 11:37:41;;;;;;;2.87;2.20;;;9.10;99.90;;;;;;5037973;28;20443;-68
2022/03/08 11:40:11;;;;;;;5.90;3.00;;;9.20;99.90;;;;;;5038079;28;20522;-67
2022/03/08 11:42:44;;;;;;;3.57;2.43;;;9.20;99.90;;;;;;5037843;28;20484;-67
2022/03/08 11:45:14;;;;;;;4.27;3.03;;;9.30;99.90;;;;;;5037761;28;20780;-68
2022/03/08 11:47:43;;;;;;;4.87;3.40;;;9.40;99.90;;;;;;5038236;28;20749;-68
2022/03/08 11:50:23;;;;;;;4.50;2.90;;;9.50;99.90;;;;;;5037540;28;20459;-67
2022/03/08 11:53:08;;;;;;;3.20;2.53;;;9.70;99.90;;;;;;5038235;28;20454;-67
2022/03/08 11:55:38;;;;;;;3.47;2.47;;;10.00;99.90;;;;;;5037445;28;20486;-68
2022/03/08 11:58:06;;;;;;;4.90;2.70;;;10.10;99.90;;;;;;5037406;28;20912;-67
2022/03/08 12:00:42;;;;;;;3.10;2.60;;;10.20;99.90;;;;;;5038011;28;20455;-67
2022/03/08 12:03:15;;;;;;;3.27;2.87;;;10.30;99.90;;;;;;5038039;28;20497;-68
2022/03/08 12:05:58;;;;;;;2.80;2.47;;;10.50;99.90;;;;;;5039341;28;20538;-67
2022/03/08 12:09:09;;;;;;;4.43;3.13;;;11.00;99.90;;;;;;5038934;28;20933;-68
2022/03/08 12:11:39;;;;;;;3.70;2.53;;;11.90;97.80;;;;;;5037532;28;20436;-68
2022/03/08 12:14:12;;;;;;;3.33;2.43;;;13.10;93.60;;;;;;5037212;28;20500;-67
2022/03/08 12:16:41;;;;;;;3.50;2.63;;;14.20;89.50;;;;;;5037224;28;20505;-67
2022/03/08 12:19:09;;;;;;;2.80;2.40;;;15.20;76.10;;;;;;5036872;28;20486;-68
2022/03/08 12:21:44;;;;;;;4.27;2.80;;;16.20;65.80;;;;;;5036942;28;20492;-68
2022/03/08 12:24:17;;;;;;;3.67;2.60;;;17.20;58.80;;;;;;5036277;28;20440;-68
2022/03/08 12:26:56;;;;;;;2.80;2.10;;;17.90;52.50;;;;;;5036442;28;20443;-68
2022/03/08 12:29:25;;;;;;;3.83;2.50;;;17.70;47.30;;;;;;5036634;28;20627;-68
2022/03/08 12:32:35;;;;;;;2.93;2.60;;;17.70;49.40;;;;;;5036959;28;20456;-68
2022/03/08 12:35:12;;;;;;;2.57;2.23;;;18.90;48.60;;;;;;5036672;28;20440;-67
2022/03/08 12:37:47;;;;;;;2.60;2.37;;;20.30;45.40;;;;;;5037385;28;20908;-67
2022/03/08 12:40:35;;;;;;;2.20;2.00;;;21.50;40.70;;;;;;5037337;28;20455;-67
2022/03/08 12:43:07;;;;;;;2.23;2.00;;;21.90;37.20;;;;;;5036393;28;20948;-68
2022/03/08 12:45:36;;;;;;;3.07;2.00;;;22.30;34.50;;;;;;5036514;28;20972;-67
2022/03/08 12:48:05;;;;;;;3.87;2.20;;;22.80;32.00;;;;;;5036564;28;20483;-67
2022/03/08 12:50:34;;;;;;;2.77;2.40;;;23.20;30.60;;;;;;5036506;28;20792;-68
2022/03/08 12:53:04;;;;;;;2.13;1.90;;;23.50;29.50;;;;;;5036327;28;20460;-68
2022/03/08 12:55:36;;;;;;;2.87;2.40;;;23.80;28.80;;;;;;5036005;28;20452;-68
2022/03/08 12:58:07;;;;;;;2.40;2.00;;;23.30;27.70;;;;;;5036656;28;20467;-69